Time;durP1;ratioP1;P1;durP2;ratioP2;P2;SDS_P1;SDS_P2;PMS_P1;PMS_P2;Temp;Humidity;BMP_temperature;BMP_pressure;BME280_temperature;BME280_humidity;BME280_pressure;Samples;Min_cycle;Max_cycle;Signal;HPM_P1;HPM_P2
2021/06/22 00:00:13;;;;;;;4.53;3.00;;;;;;;;;;3593160;40;20028;-69
2021/06/22 00:02:39;;;;;;;4.13;3.25;;;;;;;;;;3593278;40;20043;-69
2021/06/22 00:05:05;;;;;;;5.68;3.95;;;;;;;;;;3593021;40;20024;-68
2021/06/22 00:07:31;;;;;;;4.90;3.10;;;;;;;;;;3586285;40;20284;-67
2021/06/22 00:09:57;;;;;;;4.10;2.67;;;;;;;;;;3592000;40;20033;-67
2021/06/22 00:12:22;;;;;;;4.20;2.55;;;;;;;;;;3592284;40;20261;-67
2021/06/22 00:14:48;;;;;;;3.60;2.90;;;;;;;;;;3584537;40;20036;-67
2021/06/22 00:17:13;;;;;;;4.40;2.95;;;;;;;;;;3593084;40;20029;-67
2021/06/22 00:19:39;;;;;;;5.28;2.95;;;;;;;;;;3592129;40;20086;-66
2021/06/22 00:22:05;;;;;;;4.22;3.28;;;;;;;;;;3591574;40;20044;-66
2021/06/22 00:24:30;;;;;;;7.53;3.80;;;;;;;;;;3592667;40;20039;-66
2021/06/22 00:26:56;;;;;;;5.88;3.63;;;;;;;;;;3593466;40;20024;-63
2021/06/22 00:29:24;;;;;;;9.00;3.35;;;;;;;;;;3594360;40;20394;-66
2021/06/22 00:31:50;;;;;;;4.45;3.10;;;;;;;;;;3593246;40;20051;-64
2021/06/22 00:34:16;;;;;;;4.57;3.05;;;;;;;;;;3593089;40;20485;-63
2021/06/22 00:36:41;;;;;;;4.50;2.92;;;;;;;;;;3594159;40;20068;-64
2021/06/22 00:39:07;;;;;;;4.38;3.03;;;;;;;;;;3591764;40;20036;-64
2021/06/22 00:41:32;;;;;;;4.00;2.90;;;;;;;;;;3591724;40;20044;-64
2021/06/22 00:44:09;;;;;;;5.22;3.17;;;;;;;;;;3593314;40;20129;-64
2021/06/22 00:46:36;;;;;;;4.15;3.33;;;;;;;;;;3593083;40;20040;-63
2021/06/22 00:49:05;;;;;;;4.18;2.88;;;;;;;;;;3586179;40;20132;-63
2021/06/22 00:51:30;;;;;;;4.07;2.70;;;;;;;;;;3590508;40;20051;-64
2021/06/22 00:53:56;;;;;;;3.45;2.42;;;;;;;;;;3592532;40;20366;-63
2021/06/22 00:56:23;;;;;;;4.53;2.50;;;;;;;;;;3592125;40;20056;-63
2021/06/22 00:58:50;;;;;;;4.03;2.42;;;;;;;;;;3593820;40;20043;-63
2021/06/22 01:01:16;;;;;;;4.72;3.17;;;;;;;;;;3592091;40;20043;-63
2021/06/22 01:03:41;;;;;;;3.53;2.50;;;;;;;;;;3592685;40;20040;-64
2021/06/22 01:06:10;;;;;;;5.03;2.80;;;;;;;;;;3593736;40;20379;-64
2021/06/22 01:08:36;;;;;;;3.80;2.65;;;;;;;;;;3592136;40;20054;-64
2021/06/22 01:11:01;;;;;;;3.97;2.75;;;;;;;;;;3592595;40;20048;-64
2021/06/22 01:13:27;;;;;;;3.67;2.95;;;;;;;;;;3592222;40;20132;-64
2021/06/22 01:15:52;;;;;;;4.57;2.85;;;;;;;;;;3592823;40;20368;-64
2021/06/22 01:18:18;;;;;;;2.95;2.45;;;;;;;;;;3592856;40;20028;-64
2021/06/22 01:20:43;;;;;;;3.45;2.75;;;;;;;;;;3592489;40;20528;-64
2021/06/22 01:23:09;;;;;;;3.72;2.55;;;;;;;;;;3592641;40;20075;-63
2021/06/22 01:25:36;;;;;;;4.32;2.35;;;;;;;;;;3592630;40;20033;-64
2021/06/22 01:28:02;;;;;;;6.10;2.70;;;;;;;;;;3591860;40;20032;-64
2021/06/22 01:30:29;;;;;;;5.15;2.40;;;;;;;;;;3591902;40;20061;-64
2021/06/22 01:32:57;;;;;;;3.88;2.30;;;;;;;;;;3591263;40;20039;-64
2021/06/22 01:35:24;;;;;;;3.90;2.10;;;;;;;;;;3591846;40;20044;-65
2021/06/22 01:38:05;;;;;;;4.95;2.75;;;;;;;;;;3592167;39;20028;-64
2021/06/22 01:40:30;;;;;;;2.95;2.08;;;;;;;;;;3582003;40;20028;-64
2021/06/22 01:42:57;;;;;;;2.72;2.05;;;;;;;;;;3592274;40;20117;-64
2021/06/22 01:45:23;;;;;;;3.47;2.35;;;;;;;;;;3590315;40;20072;-64
2021/06/22 01:47:49;;;;;;;3.47;2.10;;;;;;;;;;3591176;39;20044;-63
2021/06/22 01:50:16;;;;;;;4.20;2.60;;;;;;;;;;3592243;40;20031;-64
2021/06/22 01:52:42;;;;;;;4.05;2.25;;;;;;;;;;3593229;40;20032;-63
2021/06/22 01:57:52;;;;;;;6.65;2.70;;;;;;;;;;3591740;40;20133;-63
2021/06/22 02:00:18;;;;;;;3.60;2.25;;;;;;;;;;3593801;40;20048;-63
2021/06/22 02:02:44;;;;;;;3.53;2.58;;;;;;;;;;3593122;40;20038;-63
2021/06/22 02:05:11;;;;;;;3.22;2.45;;;;;;;;;;3593361;40;20036;-63
2021/06/22 02:07:36;;;;;;;5.22;2.22;;;;;;;;;;3585770;40;20040;-63
2021/06/22 02:10:04;;;;;;;2.47;1.92;;;;;;;;;;3593548;40;20276;-63
2021/06/22 02:12:29;;;;;;;5.22;2.20;;;;;;;;;;3591902;40;20374;-64
2021/06/22 02:14:54;;;;;;;2.33;1.48;;;;;;;;;;3592587;40;20040;-63
2021/06/22 02:17:20;;;;;;;5.82;1.67;;;;;;;;;;3591562;40;20039;-64
2021/06/22 02:19:45;;;;;;;3.13;1.83;;;;;;;;;;3589538;40;20028;-65
2021/06/22 02:22:11;;;;;;;3.13;2.05;;;;;;;;;;3590497;40;20181;-65
2021/06/22 02:24:38;;;;;;;4.68;2.10;;;;;;;;;;3591083;40;20044;-65
2021/06/22 02:27:03;;;;;;;2.38;1.40;;;;;;;;;;3592822;40;20096;-65
2021/06/22 02:29:29;;;;;;;2.88;1.55;;;;;;;;;;3592246;40;20036;-66
2021/06/22 02:31:54;;;;;;;2.63;1.80;;;;;;;;;;3593075;39;20059;-67
2021/06/22 02:34:20;;;;;;;3.92;1.40;;;;;;;;;;3594417;40;20058;-67
2021/06/22 02:36:45;;;;;;;2.72;1.33;;;;;;;;;;3593926;40;20064;-66
2021/06/22 02:39:10;;;;;;;2.75;1.92;;;;;;;;;;3593720;40;20075;-65
2021/06/22 02:41:36;;;;;;;3.38;2.38;;;;;;;;;;3591895;40;20032;-65
2021/06/22 02:44:01;;;;;;;2.30;1.50;;;;;;;;;;3593962;39;20036;-65
2021/06/22 02:46:27;;;;;;;2.50;1.63;;;;;;;;;;3587065;40;20044;-65
2021/06/22 02:48:53;;;;;;;3.70;1.83;;;;;;;;;;3592355;40;20050;-65
2021/06/22 02:51:18;;;;;;;2.38;1.83;;;;;;;;;;3594377;40;20055;-65
2021/06/22 02:53:44;;;;;;;2.60;1.83;;;;;;;;;;3595256;40;20036;-65
2021/06/22 02:56:09;;;;;;;2.67;1.90;;;;;;;;;;3594522;39;20052;-65
2021/06/22 02:58:36;;;;;;;2.95;2.13;;;;;;;;;;3590381;40;20036;-64
2021/06/22 03:01:02;;;;;;;3.25;2.05;;;;;;;;;;3592011;40;20786;-65
2021/06/22 03:03:28;;;;;;;2.60;1.45;;;;;;;;;;3593474;39;20158;-65
2021/06/22 03:05:53;;;;;;;3.65;2.22;;;;;;;;;;3596135;40;20346;-65
2021/06/22 03:08:19;;;;;;;2.95;1.90;;;;;;;;;;3593753;40;20043;-65
2021/06/22 03:10:44;;;;;;;2.17;1.48;;;;;;;;;;3595418;40;20142;-65
2021/06/22 03:13:10;;;;;;;2.60;1.60;;;;;;;;;;3592509;40;20044;-65
2021/06/22 03:15:35;;;;;;;2.80;1.77;;;;;;;;;;3592420;40;20054;-65
2021/06/22 03:18:01;;;;;;;2.58;1.55;;;;;;;;;;3594737;40;20117;-65
2021/06/22 03:20:26;;;;;;;2.65;1.90;;;;;;;;;;3592003;39;20095;-65
2021/06/22 03:22:53;;;;;;;3.08;1.85;;;;;;;;;;3592543;40;20415;-65
2021/06/22 03:25:18;;;;;;;2.05;1.52;;;;;;;;;;3592219;40;20055;-65
2021/06/22 03:27:44;;;;;;;3.60;1.70;;;;;;;;;;3593549;40;20051;-65
2021/06/22 03:30:11;;;;;;;3.42;1.55;;;;;;;;;;3593043;40;20150;-65
2021/06/22 03:32:37;;;;;;;2.80;1.60;;;;;;;;;;3593193;40;20055;-65
2021/06/22 03:35:05;;;;;;;2.88;1.70;;;;;;;;;;3591433;40;20048;-65
2021/06/22 03:37:30;;;;;;;2.80;1.95;;;;;;;;;;3595022;40;20021;-65
2021/06/22 03:39:56;;;;;;;3.55;2.10;;;;;;;;;;3594084;40;20038;-65
2021/06/22 03:42:22;;;;;;;2.63;1.70;;;;;;;;;;3592878;40;20453;-65
2021/06/22 03:44:47;;;;;;;3.33;1.55;;;;;;;;;;3593440;40;20039;-65
2021/06/22 03:47:13;;;;;;;3.55;1.67;;;;;;;;;;3593105;40;20030;-65
2021/06/22 03:49:38;;;;;;;2.28;1.40;;;;;;;;;;3593085;40;20291;-64
2021/06/22 03:52:04;;;;;;;2.40;1.58;;;;;;;;;;3593546;40;20040;-65
2021/06/22 03:54:29;;;;;;;2.15;1.35;;;;;;;;;;3592480;40;20360;-65
2021/06/22 03:56:54;;;;;;;2.13;1.42;;;;;;;;;;3591309;40;20045;-65
2021/06/22 03:59:20;;;;;;;3.83;1.50;;;;;;;;;;3593136;40;20039;-63
2021/06/22 04:01:45;;;;;;;2.35;1.30;;;;;;;;;;3593532;39;20279;-63
2021/06/22 04:04:11;;;;;;;3.75;1.48;;;;;;;;;;3593122;40;20036;-64
2021/06/22 04:06:36;;;;;;;2.50;1.40;;;;;;;;;;3592921;40;20466;-63
2021/06/22 04:09:02;;;;;;;4.30;1.83;;;;;;;;;;3591985;39;20044;-63
2021/06/22 04:11:28;;;;;;;2.75;1.55;;;;;;;;;;3591713;40;20145;-63
2021/06/22 04:13:54;;;;;;;3.00;1.45;;;;;;;;;;3593869;40;20068;-62
2021/06/22 04:16:19;;;;;;;1.88;1.08;;;;;;;;;;3581401;40;20029;-63
2021/06/22 04:18:45;;;;;;;2.60;1.60;;;;;;;;;;3591589;40;20099;-63
2021/06/22 04:21:10;;;;;;;1.65;1.00;;;;;;;;;;3594142;40;20032;-63
2021/06/22 04:23:36;;;;;;;1.95;1.35;;;;;;;;;;3593767;40;20032;-64
2021/06/22 04:26:02;;;;;;;2.47;1.45;;;;;;;;;;3591385;40;20051;-62
2021/06/22 04:28:27;;;;;;;2.08;0.98;;;;;;;;;;3590653;40;20052;-63
2021/06/22 04:30:53;;;;;;;2.10;1.50;;;;;;;;;;3592272;40;20491;-64
2021/06/22 04:33:18;;;;;;;2.40;1.23;;;;;;;;;;3592311;40;20028;-62
2021/06/22 04:35:44;;;;;;;2.17;0.95;;;;;;;;;;3592551;40;20069;-63
2021/06/22 04:38:09;;;;;;;2.00;0.90;;;;;;;;;;3594841;40;20032;-62
2021/06/22 04:40:37;;;;;;;1.85;0.70;;;;;;;;;;3592211;40;20055;-63
2021/06/22 04:43:04;;;;;;;1.30;0.75;;;;;;;;;;3592848;40;20051;-62
2021/06/22 04:45:31;;;;;;;1.15;0.65;;;;;;;;;;3593635;40;20039;-62
2021/06/22 04:47:58;;;;;;;1.65;0.90;;;;;;;;;;3594191;40;20042;-61
2021/06/22 04:50:24;;;;;;;2.03;1.00;;;;;;;;;;3592407;40;20129;-62
2021/06/22 04:52:49;;;;;;;1.98;0.70;;;;;;;;;;3592267;39;20295;-62
2021/06/22 04:55:17;;;;;;;1.15;0.70;;;;;;;;;;3592348;40;20056;-62
2021/06/22 04:57:44;;;;;;;2.10;0.77;;;;;;;;;;3592855;40;20056;-62
2021/06/22 05:00:11;;;;;;;2.35;0.70;;;;;;;;;;3591073;40;20055;-62
2021/06/22 05:02:39;;;;;;;0.75;0.50;;;;;;;;;;3590885;40;20032;-62
2021/06/22 05:05:05;;;;;;;1.20;0.63;;;;;;;;;;3592663;40;20035;-62
2021/06/22 05:07:31;;;;;;;1.83;0.95;;;;;;;;;;3593887;39;20079;-61
2021/06/22 05:09:57;;;;;;;1.00;0.57;;;;;;;;;;3592813;40;20340;-62
2021/06/22 05:12:23;;;;;;;1.20;0.70;;;;;;;;;;3591692;40;20036;-62
2021/06/22 05:14:48;;;;;;;5.88;0.98;;;;;;;;;;3593493;39;20129;-62
2021/06/22 05:17:14;;;;;;;2.50;0.95;;;;;;;;;;3594205;40;20024;-62
2021/06/22 05:19:39;;;;;;;1.70;0.70;;;;;;;;;;3592367;40;20488;-62
2021/06/22 05:22:05;;;;;;;1.60;0.80;;;;;;;;;;3591607;39;20040;-62
2021/06/22 05:24:30;;;;;;;1.20;0.80;;;;;;;;;;3591721;40;20557;-62
2021/06/22 05:26:56;;;;;;;2.25;1.00;;;;;;;;;;3592007;40;20141;-62
2021/06/22 05:29:22;;;;;;;1.45;0.80;;;;;;;;;;3593062;40;20032;-62
2021/06/22 05:31:47;;;;;;;1.05;0.68;;;;;;;;;;3593144;40;20032;-62
2021/06/22 05:34:13;;;;;;;1.55;0.82;;;;;;;;;;3592448;40;20043;-61
2021/06/22 05:36:38;;;;;;;5.30;0.80;;;;;;;;;;3591787;40;20036;-62
2021/06/22 05:39:04;;;;;;;2.15;1.00;;;;;;;;;;3591253;40;20032;-62
2021/06/22 05:41:29;;;;;;;1.23;0.73;;;;;;;;;;3591971;40;20043;-62
2021/06/22 05:43:55;;;;;;;1.77;0.95;;;;;;;;;;3592247;40;20117;-62
2021/06/22 05:46:20;;;;;;;3.15;0.90;;;;;;;;;;3590534;40;20043;-63
2021/06/22 05:48:46;;;;;;;3.15;0.93;;;;;;;;;;3591430;40;20060;-62
2021/06/22 05:51:11;;;;;;;2.33;1.20;;;;;;;;;;3586530;40;20107;-63
2021/06/22 05:53:37;;;;;;;2.17;1.00;;;;;;;;;;3590657;40;20370;-63
2021/06/22 05:56:02;;;;;;;5.38;1.15;;;;;;;;;;3591647;40;20052;-63
2021/06/22 05:58:28;;;;;;;2.63;1.10;;;;;;;;;;3589218;40;20087;-63
2021/06/22 06:00:53;;;;;;;1.63;0.82;;;;;;;;;;3593048;40;20028;-63
2021/06/22 06:03:18;;;;;;;6.10;1.05;;;;;;;;;;3590469;40;20320;-63
2021/06/22 06:05:44;;;;;;;1.73;0.90;;;;;;;;;;3593426;39;20055;-63
2021/06/22 06:08:09;;;;;;;2.42;1.00;;;;;;;;;;3592849;40;20611;-62
2021/06/22 06:10:35;;;;;;;5.60;1.13;;;;;;;;;;3593267;40;20029;-62
2021/06/22 06:13:00;;;;;;;1.05;0.70;;;;;;;;;;3593075;40;20067;-61
2021/06/22 06:15:26;;;;;;;1.95;0.98;;;;;;;;;;3594160;39;20037;-62
2021/06/22 06:17:51;;;;;;;1.45;0.90;;;;;;;;;;3594371;39;20127;-62
2021/06/22 06:20:17;;;;;;;2.83;0.90;;;;;;;;;;3593944;40;20477;-62
2021/06/22 06:22:43;;;;;;;1.45;0.70;;;;;;;;;;3594224;40;20047;-62
2021/06/22 06:25:11;;;;;;;1.98;1.10;;;;;;;;;;3593490;40;20044;-62
2021/06/22 06:27:48;;;;;;;2.03;1.02;;;;;;;;;;3590279;40;20039;-62
2021/06/22 06:30:19;;;;;;;3.22;1.05;;;;;;;;;;3592318;40;20048;-62
2021/06/22 06:32:46;;;;;;;3.83;1.00;;;;;;;;;;3594691;40;20024;-63
2021/06/22 06:35:12;;;;;;;2.67;1.17;;;;;;;;;;3584311;40;20036;-63
2021/06/22 06:37:38;;;;;;;1.35;0.80;;;;;;;;;;3594657;39;20040;-63
2021/06/22 06:40:05;;;;;;;2.47;0.98;;;;;;;;;;3593177;39;20055;-63
2021/06/22 06:42:31;;;;;;;4.13;1.00;;;;;;;;;;3594024;39;20372;-63
2021/06/22 06:44:56;;;;;;;2.88;1.25;;;;;;;;;;3593750;39;20036;-62
2021/06/22 06:47:22;;;;;;;1.95;1.00;;;;;;;;;;3593200;39;20049;-62
2021/06/22 06:49:48;;;;;;;5.75;1.00;;;;;;;;;;3592437;39;20041;-62
2021/06/22 06:52:13;;;;;;;2.70;0.98;;;;;;;;;;3594335;39;20040;-63
2021/06/22 06:54:39;;;;;;;1.90;0.90;;;;;;;;;;3583941;40;20072;-63
2021/06/22 06:57:05;;;;;;;1.85;0.82;;;;;;;;;;3593582;39;20035;-63
2021/06/22 06:59:30;;;;;;;2.40;0.98;;;;;;;;;;3594432;39;20041;-63
2021/06/22 07:01:55;;;;;;;1.77;0.70;;;;;;;;;;3592924;39;20043;-61
2021/06/22 07:04:21;;;;;;;4.07;0.68;;;;;;;;;;3593572;39;20121;-62
2021/06/22 07:06:47;;;;;;;2.92;1.05;;;;;;;;;;3593016;39;20271;-62
2021/06/22 07:09:13;;;;;;;1.65;0.85;;;;;;;;;;3594603;39;20339;-62
2021/06/22 07:11:38;;;;;;;1.35;0.77;;;;;;;;;;3592442;39;20047;-62
2021/06/22 07:14:04;;;;;;;1.80;0.85;;;;;;;;;;3592941;39;20056;-63
2021/06/22 07:16:29;;;;;;;1.58;1.10;;;;;;;;;;3592833;39;20164;-62
2021/06/22 07:18:55;;;;;;;0.88;0.63;;;;;;;;;;3584414;40;20348;-62
2021/06/22 07:21:20;;;;;;;2.72;1.10;;;;;;;;;;3594492;39;20382;-62
2021/06/22 07:23:46;;;;;;;2.42;0.80;;;;;;;;;;3592359;39;20370;-63
2021/06/22 07:26:12;;;;;;;2.92;1.10;;;;;;;;;;3592946;39;20028;-62
2021/06/22 07:28:38;;;;;;;1.40;0.85;;;;;;;;;;3594557;39;20032;-62
2021/06/22 07:31:05;;;;;;;1.50;0.90;;;;;;;;;;3591307;39;20119;-62
2021/06/22 07:33:30;;;;;;;2.72;1.00;;;;;;;;;;3579953;39;20400;-62
2021/06/22 07:35:56;;;;;;;3.95;0.80;;;;;;;;;;3589561;39;20092;-62
2021/06/22 07:38:21;;;;;;;1.70;0.93;;;;;;;;;;3590663;39;20651;-62
2021/06/22 07:40:47;;;;;;;2.22;1.00;;;;;;;;;;3592425;39;20032;-63
2021/06/22 07:43:14;;;;;;;2.55;0.93;;;;;;;;;;3592485;39;20072;-63
2021/06/22 07:45:41;;;;;;;2.05;0.90;;;;;;;;;;3592585;39;20036;-63
2021/06/22 07:48:07;;;;;;;2.00;1.05;;;;;;;;;;3590267;39;20092;-63
2021/06/22 07:50:32;;;;;;;2.58;1.10;;;;;;;;;;3592061;39;20055;-63
2021/06/22 07:53:01;;;;;;;2.42;0.98;;;;;;;;;;3592228;40;20047;-62
2021/06/22 07:55:26;;;;;;;1.92;1.00;;;;;;;;;;3590760;40;20052;-63
2021/06/22 07:57:52;;;;;;;1.77;0.90;;;;;;;;;;3591428;40;20162;-62
2021/06/22 08:00:43;;;;;;;1.85;1.00;;;;;;;;;;3590325;40;20291;-63
2021/06/22 08:03:10;;;;;;;;;;;;;;;;;;3592948;40;20050;-63
2021/06/22 08:05:35;;;;;;;2.22;1.13;;;;;;;;;;3590924;40;19947;-63
2021/06/22 08:08:01;;;;;;;1.98;0.90;;;;;;;;;;3589303;40;20414;-63
2021/06/22 08:10:27;;;;;;;2.15;1.00;;;;;;;;;;3590246;40;20157;-62
2021/06/22 08:12:52;;;;;;;2.10;1.08;;;;;;;;;;3591131;40;20032;-63
2021/06/22 08:15:18;;;;;;;3.72;1.17;;;;;;;;;;3591160;40;20047;-62
2021/06/22 08:17:44;;;;;;;1.95;1.10;;;;;;;;;;3590628;40;20032;-62
2021/06/22 08:20:10;;;;;;;1.63;0.90;;;;;;;;;;3591540;40;20039;-62
2021/06/22 08:22:36;;;;;;;2.40;1.00;;;;;;;;;;3592435;40;20040;-63
2021/06/22 08:25:04;;;;;;;1.92;0.98;;;;;;;;;;3590342;40;20035;-62
2021/06/22 08:27:29;;;;;;;2.67;1.10;;;;;;;;;;3591888;39;20032;-62
2021/06/22 08:29:54;;;;;;;2.10;1.17;;;;;;;;;;3590299;40;20129;-62
2021/06/22 08:32:20;;;;;;;2.33;1.08;;;;;;;;;;3590268;39;20044;-61
2021/06/22 08:34:45;;;;;;;2.25;1.30;;;;;;;;;;3588709;39;20048;-62
2021/06/22 08:37:11;;;;;;;3.10;1.30;;;;;;;;;;3590589;40;20035;-62
2021/06/22 08:39:37;;;;;;;2.45;1.15;;;;;;;;;;3587126;40;20165;-62
2021/06/22 08:42:06;;;;;;;3.13;0.88;;;;;;;;;;3587022;40;20044;-62
2021/06/22 08:44:32;;;;;;;2.05;1.00;;;;;;;;;;3584360;40;20084;-62
2021/06/22 08:46:59;;;;;;;4.72;1.10;;;;;;;;;;3592160;40;20059;-62
2021/06/22 08:49:26;;;;;;;1.85;1.02;;;;;;;;;;3592501;40;20168;-62
2021/06/22 08:51:52;;;;;;;1.75;0.80;;;;;;;;;;3590910;40;20044;-62
2021/06/22 08:54:17;;;;;;;5.55;1.33;;;;;;;;;;3591647;39;20063;-62
2021/06/22 08:56:43;;;;;;;3.50;1.25;;;;;;;;;;3590963;40;20132;-62
2021/06/22 08:59:09;;;;;;;3.50;1.10;;;;;;;;;;3591838;40;20055;-62
2021/06/22 09:01:34;;;;;;;2.28;1.15;;;;;;;;;;3590163;40;20672;-63
2021/06/22 09:04:00;;;;;;;2.70;1.30;;;;;;;;;;3588045;40;20439;-62
2021/06/22 09:06:26;;;;;;;3.38;0.80;;;;;;;;;;3584351;40;20031;-63
2021/06/22 09:08:55;;;;;;;1.63;0.85;;;;;;;;;;3591401;40;20287;-63
2021/06/22 09:11:20;;;;;;;4.78;1.25;;;;;;;;;;3590216;40;20048;-63
2021/06/22 09:14:01;;;;;;;2.30;1.08;;;;;;;;;;3591401;40;20067;-63
2021/06/22 09:16:27;;;;;;;3.03;1.00;;;;;;;;;;3586355;40;20052;-63
2021/06/22 09:18:59;;;;;;;7.18;0.95;;;;;;;;;;3584450;40;20071;-62
2021/06/22 09:21:25;;;;;;;2.65;1.20;;;;;;;;;;3579730;40;20346;-62
2021/06/22 09:23:56;;;;;;;1.77;0.98;;;;;;;;;;3588281;40;20048;-63
2021/06/22 09:26:25;;;;;;;2.00;1.05;;;;;;;;;;3589732;40;20416;-62
2021/06/22 09:28:53;;;;;;;1.73;0.82;;;;;;;;;;3590735;40;20072;-63
2021/06/22 09:31:23;;;;;;;3.67;1.70;;;;;;;;;;3589141;39;20051;-63
2021/06/22 09:33:51;;;;;;;4.43;1.35;;;;;;;;;;3588374;39;20029;-63
2021/06/22 09:36:27;;;;;;;5.95;1.25;;;;;;;;;;3587813;39;20047;-63
2021/06/22 09:38:56;;;;;;;2.47;1.10;;;;;;;;;;3588880;39;20127;-63
2021/06/22 09:41:26;;;;;;;3.53;1.40;;;;;;;;;;3586686;40;20083;-62
2021/06/22 09:44:07;;;;;;;2.28;1.17;;;;;;;;;;3589763;40;20055;-63
2021/06/22 09:46:38;;;;;;;1.60;0.90;;;;;;;;;;3590713;40;20048;-63
2021/06/22 09:49:09;;;;;;;2.88;1.10;;;;;;;;;;3588434;40;20040;-62
2021/06/22 09:51:51;;;;;;;2.70;1.10;;;;;;;;;;3589681;40;20059;-62
2021/06/22 09:54:22;;;;;;;3.80;0.95;;;;;;;;;;3590620;40;20044;-63
2021/06/22 09:57:11;;;;;;;3.17;1.40;;;;;;;;;;3590747;39;20080;-63
2021/06/22 09:59:53;;;;;;;3.70;1.20;;;;;;;;;;3586860;40;20040;-63
2021/06/22 10:02:21;;;;;;;4.55;1.40;;;;;;;;;;3588882;40;20296;-63
2021/06/22 10:04:48;;;;;;;2.60;1.17;;;;;;;;;;3588025;40;20390;-63
2021/06/22 10:07:17;;;;;;;3.22;1.20;;;;;;;;;;3588886;40;20068;-63
2021/06/22 10:09:43;;;;;;;3.00;1.25;;;;;;;;;;3587066;40;20032;-63
2021/06/22 10:12:13;;;;;;;3.20;1.38;;;;;;;;;;3589597;40;20037;-62
2021/06/22 10:14:41;;;;;;;2.03;1.20;;;;;;;;;;3590352;40;20136;-64
2021/06/22 10:17:09;;;;;;;2.47;1.20;;;;;;;;;;3590638;40;20519;-63
2021/06/22 10:19:36;;;;;;;2.97;1.40;;;;;;;;;;3586492;40;20662;-63
2021/06/22 10:22:05;;;;;;;2.75;1.45;;;;;;;;;;3588078;40;20044;-63
2021/06/22 10:24:32;;;;;;;1.38;0.80;;;;;;;;;;3580626;40;20040;-63
2021/06/22 10:27:00;;;;;;;4.35;1.40;;;;;;;;;;3588568;40;20377;-63
2021/06/22 10:29:26;;;;;;;2.42;1.33;;;;;;;;;;3588145;40;20056;-63
2021/06/22 10:31:57;;;;;;;2.72;1.10;;;;;;;;;;3588724;39;20043;-63
2021/06/22 10:34:23;;;;;;;2.17;1.15;;;;;;;;;;3590281;39;20029;-63
2021/06/22 10:37:08;;;;;;;2.40;1.30;;;;;;;;;;3589160;39;20401;-63
2021/06/22 10:39:39;;;;;;;3.67;1.50;;;;;;;;;;3588244;40;20036;-63
2021/06/22 10:42:14;;;;;;;2.63;1.50;;;;;;;;;;3587996;40;20090;-63
2021/06/22 10:44:46;;;;;;;3.53;1.50;;;;;;;;;;3581921;40;20043;-63
2021/06/22 10:47:32;;;;;;;2.92;1.42;;;;;;;;;;3589089;40;20036;-63
2021/06/22 10:50:01;;;;;;;2.42;1.27;;;;;;;;;;3590484;40;20064;-63
2021/06/22 10:52:49;;;;;;;2.15;1.15;;;;;;;;;;3590467;39;20056;-62
2021/06/22 10:55:44;;;;;;;7.22;1.40;;;;;;;;;;3584323;40;20408;-62
2021/06/22 10:58:09;;;;;;;3.30;1.33;;;;;;;;;;3592315;40;20047;-63
2021/06/22 11:00:38;;;;;;;3.80;1.92;;;;;;;;;;3591062;40;20044;-62
2021/06/22 11:03:11;;;;;;;5.90;1.70;;;;;;;;;;3590289;40;20044;-63
2021/06/22 11:05:43;;;;;;;2.67;1.30;;;;;;;;;;3591243;40;20036;-60
2021/06/22 11:08:09;;;;;;;2.10;1.23;;;;;;;;;;3590295;40;20052;-61
2021/06/22 11:10:47;;;;;;;2.20;1.25;;;;;;;;;;3591409;40;20125;-62
2021/06/22 11:13:36;;;;;;;2.85;1.85;;;;;;;;;;3589701;40;20032;-61
2021/06/22 11:16:21;;;;;;;2.42;1.20;;;;;;;;;;3590621;40;20046;-62
2021/06/22 11:18:56;;;;;;;2.53;1.55;;;;;;;;;;3592778;40;20078;-61
2021/06/22 11:21:25;;;;;;;3.20;1.50;;;;;;;;;;3591632;40;20387;-62
2021/06/22 11:23:57;;;;;;;4.55;1.42;;;;;;;;;;3592588;40;20032;-62
2021/06/22 11:26:27;;;;;;;3.65;1.40;;;;;;;;;;3593028;40;20047;-62
2021/06/22 11:28:55;;;;;;;2.27;1.17;;;;;;;;;;3590941;40;20166;-63
2021/06/22 11:31:37;;;;;;;3.47;1.33;;;;;;;;;;3593134;40;20390;-62
2021/06/22 11:34:09;;;;;;;4.13;1.50;;;;;;;;;;3592941;39;20775;-61
2021/06/22 11:36:43;;;;;;;2.30;1.35;;;;;;;;;;3583277;40;20445;-62
2021/06/22 11:39:27;;;;;;;3.85;1.40;;;;;;;;;;3583198;39;20149;-61
2021/06/22 11:42:11;;;;;;;2.40;1.25;;;;;;;;;;3590253;39;20032;-61
2021/06/22 11:44:47;;;;;;;2.78;1.42;;;;;;;;;;3590263;39;20120;-62
2021/06/22 11:47:13;;;;;;;2.85;1.50;;;;;;;;;;3587756;39;20040;-62
2021/06/22 11:49:47;;;;;;;5.22;1.63;;;;;;;;;;3591248;39;20320;-62
2021/06/22 11:52:15;;;;;;;2.58;1.45;;;;;;;;;;3592008;39;20125;-62
2021/06/22 11:54:46;;;;;;;3.08;1.50;;;;;;;;;;3579032;39;20370;-62
2021/06/22 11:57:27;;;;;;;2.33;1.23;;;;;;;;;;3586832;39;20044;-62
2021/06/22 11:59:53;;;;;;;4.30;1.55;;;;;;;;;;3590741;40;20052;-62
2021/06/22 12:02:19;;;;;;;2.92;1.40;;;;;;;;;;3588637;39;20040;-62
2021/06/22 12:04:47;;;;;;;2.70;1.48;;;;;;;;;;3592175;40;20036;-62
2021/06/22 12:07:13;;;;;;;3.67;1.50;;;;;;;;;;3591215;40;20036;-63
2021/06/22 12:09:39;;;;;;;3.13;1.75;;;;;;;;;;3591762;40;20024;-63
2021/06/22 12:12:06;;;;;;;2.53;1.25;;;;;;;;;;3591546;40;20165;-62
2021/06/22 12:14:32;;;;;;;2.30;1.20;;;;;;;;;;3592331;40;20294;-62
2021/06/22 12:16:58;;;;;;;2.72;1.52;;;;;;;;;;3591846;40;20040;-62
2021/06/22 12:19:25;;;;;;;3.25;1.80;;;;;;;;;;3591139;40;20044;-62
2021/06/22 12:21:52;;;;;;;3.55;1.70;;;;;;;;;;3589452;39;20585;-63
2021/06/22 12:24:20;;;;;;;2.70;1.63;;;;;;;;;;3587979;39;20036;-62
2021/06/22 12:26:52;;;;;;;5.28;2.00;;;;;;;;;;3589957;39;20032;-63
2021/06/22 12:29:26;;;;;;;2.92;1.70;;;;;;;;;;3590440;39;20033;-65
2021/06/22 12:31:56;;;;;;;5.53;1.58;;;;;;;;;;3590494;40;20350;-64
2021/06/22 12:34:23;;;;;;;2.83;1.75;;;;;;;;;;3591512;40;20419;-66
2021/06/22 12:36:49;;;;;;;7.05;2.38;;;;;;;;;;3592133;40;20045;-66
2021/06/22 12:39:16;;;;;;;5.15;2.08;;;;;;;;;;3592106;39;20067;-65
2021/06/22 12:41:42;;;;;;;5.03;1.77;;;;;;;;;;3588918;39;20058;-66
2021/06/22 12:44:08;;;;;;;4.82;1.58;;;;;;;;;;3591083;39;20140;-65
2021/06/22 12:46:39;;;;;;;3.10;1.80;;;;;;;;;;3582116;40;20096;-67
2021/06/22 12:49:13;;;;;;;2.80;1.63;;;;;;;;;;3591491;40;20080;-67
2021/06/22 12:51:48;;;;;;;3.70;1.73;;;;;;;;;;3592654;40;20044;-67
2021/06/22 12:54:14;;;;;;;2.92;1.65;;;;;;;;;;3590713;40;20077;-67
2021/06/22 12:56:56;;;;;;;3.03;1.75;;;;;;;;;;3589775;40;20505;-66
2021/06/22 12:59:23;;;;;;;3.53;2.15;;;;;;;;;;3592734;40;20396;-66
2021/06/22 13:02:10;;;;;;;3.15;1.92;;;;;;;;;;3589628;40;20047;-66
2021/06/22 13:04:51;;;;;;;3.50;1.75;;;;;;;;;;3590738;40;20052;-65
2021/06/22 13:07:23;;;;;;;3.78;2.20;;;;;;;;;;3591217;40;20040;-65
2021/06/22 13:09:48;;;;;;;3.08;2.00;;;;;;;;;;3589201;40;20048;-65
2021/06/22 13:12:18;;;;;;;3.85;2.45;;;;;;;;;;3592068;40;20024;-64
2021/06/22 13:14:47;;;;;;;3.00;1.93;;;;;;;;;;3590120;39;20055;-66
2021/06/22 13:17:18;;;;;;;5.05;2.47;;;;;;;;;;3588394;40;20269;-65
2021/06/22 13:19:49;;;;;;;3.88;1.88;;;;;;;;;;3591287;40;20048;-64
2021/06/22 13:22:19;;;;;;;3.38;1.90;;;;;;;;;;3592827;40;20040;-64
2021/06/22 13:24:53;;;;;;;12.07;2.13;;;;;;;;;;3592061;40;20545;-64
2021/06/22 13:27:26;;;;;;;4.25;2.30;;;;;;;;;;3588408;39;20040;-64
2021/06/22 13:30:15;;;;;;;4.30;2.70;;;;;;;;;;3590542;40;20068;-64
2021/06/22 13:32:41;;;;;;;5.38;2.35;;;;;;;;;;3588903;40;20274;-63
2021/06/22 13:35:16;;;;;;;3.05;2.00;;;;;;;;;;3577253;40;20043;-64
2021/06/22 13:37:58;;;;;;;3.75;2.08;;;;;;;;;;3588832;40;20059;-64
2021/06/22 13:40:26;;;;;;;7.78;2.47;;;;;;;;;;3589910;39;20055;-65
2021/06/22 13:43:07;;;;;;;3.78;2.50;;;;;;;;;;3586510;39;20040;-64
2021/06/22 13:45:36;;;;;;;;;;;;;;;;;;3591856;40;20048;-63
2021/06/22 13:48:02;;;;;;;4.75;2.50;;;;;;;;;;3588065;40;20000;-63
2021/06/22 13:50:27;;;;;;;8.93;2.97;;;;;;;;;;3589874;40;20152;-64
2021/06/22 13:53:00;;;;;;;5.35;2.45;;;;;;;;;;3591665;39;20044;-64
2021/06/22 13:58:08;;;;;;;3.90;3.10;;;;;;;;;;3587941;40;20036;-64
2021/06/22 14:00:39;;;;;;;3.90;2.85;;;;;;;;;;3590396;39;20044;-64
2021/06/22 14:03:05;;;;;;;;;;;;;;;;;;3592908;40;20121;-64
2021/06/22 14:05:33;;;;;;;4.20;2.95;;;;;;;;;;3592412;40;19940;-64
2021/06/22 14:07:59;;;;;;;4.35;3.55;;;;;;;;;;3589866;40;20064;-64
2021/06/22 14:10:26;;;;;;;6.25;5.10;;;;;;;;;;3587236;40;20356;-65
2021/06/22 14:12:52;;;;;;;9.93;3.58;;;;;;;;;;3584810;40;20044;-65
2021/06/22 14:15:17;;;;;;;8.05;5.55;;;;;;;;;;3591273;39;20081;-65
2021/06/22 14:17:44;;;;;;;6.72;5.63;;;;;;;;;;3592142;40;20028;-64
2021/06/22 14:20:10;;;;;;;5.80;5.03;;;;;;;;;;3590371;40;20072;-65
2021/06/22 14:22:37;;;;;;;5.95;5.35;;;;;;;;;;3588937;40;20314;-64
2021/06/22 14:25:04;;;;;;;6.13;5.15;;;;;;;;;;3591125;40;20276;-64
2021/06/22 14:27:30;;;;;;;8.80;6.18;;;;;;;;;;3593357;40;20065;-64
2021/06/22 14:29:55;;;;;;;6.00;4.68;;;;;;;;;;3592424;40;20033;-64
2021/06/22 14:32:21;;;;;;;7.55;5.40;;;;;;;;;;3591576;40;20287;-64
2021/06/22 14:34:46;;;;;;;5.68;4.38;;;;;;;;;;3593282;39;20040;-64
2021/06/22 14:37:11;;;;;;;8.07;3.75;;;;;;;;;;3592334;40;20032;-64
2021/06/22 14:39:37;;;;;;;5.57;4.13;;;;;;;;;;3592114;40;20196;-64
2021/06/22 14:42:03;;;;;;;8.55;4.68;;;;;;;;;;3590003;39;20039;-65
2021/06/22 14:44:28;;;;;;;5.88;4.55;;;;;;;;;;3592258;40;20035;-64
2021/06/22 14:46:54;;;;;;;6.28;4.63;;;;;;;;;;3593105;40;20040;-64
2021/06/22 14:49:19;;;;;;;6.50;5.43;;;;;;;;;;3592665;40;20048;-64
2021/06/22 14:51:45;;;;;;;6.63;5.50;;;;;;;;;;3592635;40;20085;-64